createdAt,value
2017-08-07T00:01:59.384Z,17.60
2017-08-07T00:04:26.870Z,17.70
2017-08-07T00:06:54.333Z,17.70
2017-08-07T00:09:21.837Z,17.60
2017-08-07T00:11:50.051Z,17.50
2017-08-07T00:14:17.505Z,17.50
2017-08-07T00:16:45.780Z,17.50
2017-08-07T00:19:13.262Z,17.50
2017-08-07T00:21:40.711Z,17.50
2017-08-07T00:24:08.152Z,17.50
2017-08-07T00:26:35.643Z,17.40
2017-08-07T00:29:03.083Z,17.50
2017-08-07T00:31:31.089Z,17.60
2017-08-07T00:33:58.556Z,17.50
2017-08-07T00:36:26.034Z,17.50
2017-08-07T00:38:53.475Z,17.50
2017-08-07T00:41:20.957Z,17.60
2017-08-07T00:43:48.412Z,17.50
2017-08-07T00:46:15.863Z,17.50
2017-08-07T00:48:43.333Z,17.50
2017-08-07T00:51:10.807Z,17.50
2017-08-07T00:53:38.264Z,17.50
2017-08-07T00:56:05.716Z,17.40
2017-08-07T00:58:33.178Z,17.40
2017-08-07T01:01:00.636Z,17.30
2017-08-07T01:03:28.116Z,17.30
2017-08-07T01:05:55.628Z,17.30
2017-08-07T01:08:23.073Z,17.30
2017-08-07T01:10:50.537Z,17.30
2017-08-07T01:13:18.021Z,17.30
2017-08-07T01:15:45.476Z,17.30
2017-08-07T01:18:12.944Z,17.30
2017-08-07T01:20:40.396Z,17.30
2017-08-07T01:23:07.841Z,17.20
2017-08-07T01:25:36.082Z,17.20
2017-08-07T01:28:03.555Z,17.10
2017-08-07T01:30:30.995Z,17.20
2017-08-07T01:32:58.568Z,17.00
2017-08-07T01:35:26.081Z,16.90
2017-08-07T01:37:53.526Z,16.90
2017-08-07T01:40:21.004Z,16.90
2017-08-07T01:42:48.488Z,16.80
2017-08-07T01:45:15.931Z,16.80
2017-08-07T01:47:44.160Z,16.80
2017-08-07T01:50:11.636Z,16.80
2017-08-07T01:52:39.075Z,16.70
2017-08-07T01:55:07.839Z,16.70
2017-08-07T01:57:35.337Z,16.60
2017-08-07T02:00:02.803Z,16.60
2017-08-07T02:02:30.254Z,16.60
2017-08-07T02:04:57.761Z,16.60
2017-08-07T02:07:25.217Z,16.50
2017-08-07T02:09:52.686Z,16.50
2017-08-07T02:12:20.133Z,16.40
2017-08-07T02:14:47.641Z,16.40
2017-08-07T02:17:15.182Z,16.50
2017-08-07T02:19:42.635Z,16.50
2017-08-07T02:22:10.236Z,16.40
2017-08-07T02:24:37.872Z,16.20
2017-08-07T02:27:05.389Z,16.20
2017-08-07T02:29:32.844Z,16.10
2017-08-07T02:32:00.313Z,16.10
2017-08-07T02:34:27.808Z,16.10
2017-08-07T02:36:55.272Z,16.00
2017-08-07T02:39:22.743Z,15.90
2017-08-07T02:41:50.204Z,15.80
2017-08-07T02:44:19.167Z,15.80
2017-08-07T02:46:46.628Z,15.80
2017-08-07T02:49:14.121Z,15.80
2017-08-07T02:51:41.573Z,15.90
2017-08-07T02:54:09.891Z,16.10
2017-08-07T02:56:37.376Z,16.10
2017-08-07T02:59:04.834Z,15.90
2017-08-07T03:01:32.271Z,15.80
2017-08-07T03:03:59.748Z,15.90
2017-08-07T03:06:27.204Z,15.70
2017-08-07T03:08:54.660Z,15.90
2017-08-07T03:11:22.128Z,15.90
2017-08-07T03:13:49.566Z,15.90
2017-08-07T03:16:17.033Z,15.80
2017-08-07T03:18:44.515Z,15.90
2017-08-07T03:21:11.967Z,15.90
2017-08-07T03:23:40.184Z,16.00
2017-08-07T03:26:07.664Z,16.00
2017-08-07T03:28:35.136Z,15.90
2017-08-07T03:31:02.577Z,15.80
2017-08-07T03:33:30.792Z,15.70
2017-08-07T03:35:58.233Z,15.70
2017-08-07T03:38:25.691Z,15.60
2017-08-07T03:40:53.149Z,15.60
2017-08-07T03:43:20.616Z,15.70
2017-08-07T03:45:48.088Z,15.70
2017-08-07T03:48:15.586Z,15.60
2017-08-07T03:50:43.052Z,15.60
2017-08-07T03:53:10.509Z,15.50
2017-08-07T03:55:37.957Z,15.40
2017-08-07T03:58:05.432Z,15.40
2017-08-07T04:00:32.883Z,15.40
2017-08-07T04:03:01.098Z,15.40
2017-08-07T04:05:28.543Z,15.30
2017-08-07T04:07:55.986Z,15.30
2017-08-07T04:10:23.444Z,15.30
2017-08-07T04:12:50.908Z,15.20
2017-08-07T04:15:18.359Z,15.20
2017-08-07T04:17:45.822Z,15.20
2017-08-07T04:20:13.256Z,15.20
2017-08-07T04:22:40.711Z,15.20
2017-08-07T04:25:08.184Z,15.20
2017-08-07T04:27:35.615Z,15.20
2017-08-07T04:30:03.857Z,15.10
2017-08-07T04:32:31.396Z,15.10
2017-08-07T04:34:59.607Z,15.00
2017-08-07T04:37:27.097Z,15.00
2017-08-07T04:39:54.567Z,15.00
2017-08-07T04:42:22.009Z,15.10
2017-08-07T04:44:49.470Z,15.10
2017-08-07T04:47:16.941Z,15.10
2017-08-07T04:49:44.388Z,15.10
2017-08-07T04:52:11.844Z,15.10
2017-08-07T04:54:39.295Z,15.10
2017-08-07T04:57:06.762Z,15.10
2017-08-07T04:59:34.994Z,15.10
2017-08-07T05:02:02.428Z,15.10
2017-08-07T05:04:30.654Z,15.10
2017-08-07T05:06:58.136Z,15.10
2017-08-07T05:09:25.632Z,15.20
2017-08-07T05:11:53.055Z,15.20
2017-08-07T05:14:21.281Z,15.50
2017-08-07T05:16:48.773Z,15.50
2017-08-07T05:19:16.212Z,15.60
2017-08-07T05:21:43.663Z,15.70
2017-08-07T05:24:11.887Z,15.70
2017-08-07T05:26:39.379Z,15.70
2017-08-07T05:29:06.891Z,15.80
2017-08-07T05:31:34.353Z,15.90
2017-08-07T05:34:01.812Z,15.80
2017-08-07T05:36:29.258Z,15.60
2017-08-07T05:38:56.699Z,15.40
2017-08-07T05:41:24.938Z,15.80
2017-08-07T05:43:52.464Z,15.80
2017-08-07T05:46:20.679Z,17.20
2017-08-07T05:48:48.116Z,17.20
2017-08-07T05:51:15.590Z,18.00
2017-08-07T05:53:43.022Z,19.00
2017-08-07T05:56:10.452Z,19.70
2017-08-07T05:58:37.911Z,20.50
2017-08-07T06:01:05.368Z,21.00
2017-08-07T06:03:32.827Z,21.20
2017-08-07T06:06:00.273Z,21.50
2017-08-07T06:08:28.494Z,21.80
2017-08-07T06:10:55.979Z,21.80
2017-08-07T06:13:23.481Z,22.10
2017-08-07T06:15:50.934Z,22.70
2017-08-07T06:18:18.373Z,23.00
2017-08-07T06:20:45.840Z,23.10
2017-08-07T06:23:14.058Z,23.20
2017-08-07T06:25:41.512Z,23.20
2017-08-07T06:28:09.039Z,23.40
2017-08-07T06:30:36.491Z,23.50
2017-08-07T06:33:03.957Z,23.80
2017-08-07T06:35:31.428Z,23.70
2017-08-07T06:37:58.883Z,23.30
2017-08-07T06:40:26.315Z,23.80
2017-08-07T06:42:53.768Z,24.10
2017-08-07T06:45:21.231Z,24.40
2017-08-07T06:47:49.219Z,24.40
2017-08-07T06:50:16.657Z,24.90
2017-08-07T06:52:44.915Z,24.80
2017-08-07T06:55:12.363Z,24.80
2017-08-07T06:57:39.796Z,24.70
2017-08-07T07:00:07.308Z,25.40
2017-08-07T07:02:34.779Z,25.50
2017-08-07T07:05:02.235Z,25.40
2017-08-07T07:07:29.675Z,26.10
2017-08-07T07:09:57.178Z,26.00
2017-08-07T07:12:25.423Z,26.10
2017-08-07T07:14:52.865Z,26.10
2017-08-07T07:17:20.323Z,26.40
2017-08-07T07:19:48.540Z,27.30
2017-08-07T07:22:16.010Z,27.30
2017-08-07T07:24:43.499Z,27.10
2017-08-07T07:27:10.958Z,27.40
2017-08-07T07:29:38.427Z,27.50
2017-08-07T07:32:05.891Z,27.90
2017-08-07T07:34:34.103Z,28.20
2017-08-07T07:37:01.591Z,28.20
2017-08-07T07:39:29.028Z,28.20
2017-08-07T07:41:57.254Z,27.90
2017-08-07T07:44:24.695Z,27.90
2017-08-07T07:46:52.895Z,29.30
2017-08-07T07:49:20.439Z,29.30
2017-08-07T07:51:47.884Z,29.90
2017-08-07T07:54:15.320Z,29.60
2017-08-07T07:56:42.775Z,29.50
2017-08-07T07:59:10.221Z,28.80
2017-08-07T08:01:37.687Z,28.10
2017-08-07T08:04:05.162Z,27.50
2017-08-07T08:06:32.649Z,27.90
2017-08-07T08:09:00.147Z,28.30
2017-08-07T08:11:27.607Z,29.80
2017-08-07T08:13:55.083Z,30.30
2017-08-07T08:16:22.540Z,29.80
2017-08-07T08:18:50.036Z,31.10
2017-08-07T08:21:17.472Z,29.80
2017-08-07T08:23:44.930Z,28.80
2017-08-07T08:26:12.420Z,29.60
2017-08-07T08:28:39.922Z,30.80
2017-08-07T08:31:07.432Z,30.50
2017-08-07T08:33:34.879Z,29.70
2017-08-07T08:36:02.309Z,29.00
2017-08-07T08:38:29.775Z,30.00
2017-08-07T08:40:57.205Z,30.40
2017-08-07T08:43:24.655Z,31.00
2017-08-07T08:45:52.111Z,29.50
2017-08-07T08:48:19.582Z,30.50
2017-08-07T08:50:47.053Z,30.50
2017-08-07T08:53:14.495Z,31.20
2017-08-07T08:55:41.957Z,29.40
2017-08-07T08:58:09.397Z,28.70
2017-08-07T09:00:36.859Z,29.30
2017-08-07T09:03:05.074Z,30.30
2017-08-07T09:05:32.513Z,30.30
2017-08-07T09:07:59.994Z,28.40
2017-08-07T09:10:27.475Z,28.70
2017-08-07T09:12:54.924Z,29.90
2017-08-07T09:15:23.157Z,31.20
2017-08-07T09:17:50.612Z,31.20
2017-08-07T09:20:18.069Z,31.20
2017-08-07T09:22:46.368Z,30.10
2017-08-07T09:25:14.680Z,29.90
2017-08-07T09:27:42.943Z,29.90
2017-08-07T09:30:10.401Z,29.80
2017-08-07T09:32:37.846Z,30.70
2017-08-07T09:35:05.341Z,31.30
2017-08-07T09:37:32.787Z,32.10
2017-08-07T09:40:00.224Z,32.30
2017-08-07T09:42:28.482Z,33.00
2017-08-07T09:44:55.904Z,33.00
2017-08-07T09:47:23.364Z,33.10
2017-08-07T09:49:51.576Z,33.20
2017-08-07T09:52:19.031Z,33.20
2017-08-07T09:54:46.488Z,32.30
2017-08-07T09:57:13.924Z,32.80
2017-08-07T09:59:41.378Z,32.80
2017-08-07T10:02:08.828Z,32.40
2017-08-07T10:04:37.126Z,32.50
2017-08-07T10:07:04.559Z,32.50
2017-08-07T10:09:31.995Z,33.00
2017-08-07T10:11:59.471Z,33.70
2017-08-07T10:14:26.907Z,32.50
2017-08-07T10:16:54.363Z,31.90
2017-08-07T10:19:21.799Z,32.00
2017-08-07T10:21:49.397Z,33.00
2017-08-07T10:24:16.832Z,32.90
2017-08-07T10:26:44.277Z,31.60
2017-08-07T10:29:11.744Z,30.70
2017-08-07T10:31:39.220Z,30.70
2017-08-07T10:34:06.691Z,29.20
2017-08-07T10:36:34.145Z,27.90
2017-08-07T10:39:01.604Z,27.00
2017-08-07T10:41:29.039Z,27.10
2017-08-07T10:43:56.480Z,27.30
2017-08-07T10:46:23.932Z,26.90
2017-08-07T10:48:51.380Z,27.20
2017-08-07T10:51:19.598Z,27.90
2017-08-07T10:53:47.061Z,27.90
2017-08-07T10:56:14.512Z,27.90
2017-08-07T10:58:41.964Z,28.60
2017-08-07T11:01:09.393Z,29.50
2017-08-07T11:03:36.880Z,29.40
2017-08-07T11:06:04.335Z,28.30
2017-08-07T11:08:31.776Z,27.60
2017-08-07T11:11:00.003Z,27.80
2017-08-07T11:13:27.447Z,27.80
2017-08-07T11:15:55.697Z,29.70
2017-08-07T11:18:23.132Z,29.70
2017-08-07T11:20:50.603Z,30.20
2017-08-07T11:23:18.846Z,31.00
2017-08-07T11:25:46.318Z,31.00
2017-08-07T11:28:13.780Z,30.70
2017-08-07T11:30:41.345Z,29.80
2017-08-07T11:33:08.808Z,30.40
2017-08-07T11:35:36.240Z,31.20
2017-08-07T11:38:03.709Z,29.90
2017-08-07T11:40:31.138Z,30.30
2017-08-07T11:42:58.592Z,30.70
2017-08-07T11:45:26.804Z,31.10
2017-08-07T11:47:54.245Z,31.20
2017-08-07T11:50:22.461Z,29.50
2017-08-07T11:52:50.849Z,29.40
2017-08-07T11:55:19.101Z,29.70
2017-08-07T11:57:46.544Z,29.70
2017-08-07T12:00:14.014Z,30.20
2017-08-07T12:02:41.491Z,29.90
2017-08-07T12:05:08.930Z,30.80
2017-08-07T12:07:36.389Z,30.40
2017-08-07T12:10:03.846Z,30.50
2017-08-07T12:12:31.304Z,31.40
2017-08-07T12:14:58.774Z,31.40
2017-08-07T12:17:26.207Z,31.30
2017-08-07T12:19:54.444Z,30.30
2017-08-07T12:22:21.880Z,30.30
2017-08-07T12:24:49.331Z,30.30
2017-08-07T12:27:16.765Z,30.10
2017-08-07T12:29:44.243Z,30.50
2017-08-07T12:32:11.707Z,30.60
2017-08-07T12:34:39.179Z,30.40
2017-08-07T12:37:06.611Z,30.20
2017-08-07T12:39:34.086Z,29.20
2017-08-07T12:42:01.552Z,29.50
2017-08-07T12:44:29.006Z,30.20
2017-08-07T12:46:56.455Z,30.30
2017-08-07T12:49:23.884Z,30.80
2017-08-07T12:51:52.148Z,30.60
2017-08-07T12:54:19.579Z,30.40
2017-08-07T12:56:47.021Z,30.40
2017-08-07T12:59:14.554Z,30.00
2017-08-07T13:01:42.125Z,30.40
2017-08-07T13:04:09.615Z,30.40
2017-08-07T13:06:37.056Z,30.20
2017-08-07T13:09:04.543Z,30.00
2017-08-07T13:11:31.977Z,30.30
2017-08-07T13:13:59.427Z,30.60
2017-08-07T13:16:26.876Z,30.40
2017-08-07T13:18:54.355Z,30.50
2017-08-07T13:21:21.825Z,30.30
2017-08-07T13:23:49.368Z,31.10
2017-08-07T13:26:17.578Z,31.60
2017-08-07T13:28:45.064Z,31.60
2017-08-07T13:31:12.462Z,31.70
2017-08-07T13:33:39.916Z,31.90
2017-08-07T13:36:07.348Z,32.30
2017-08-07T13:38:34.795Z,31.70
2017-08-07T13:41:02.245Z,31.30
2017-08-07T13:43:29.700Z,31.10
2017-08-07T13:45:57.157Z,31.10
2017-08-07T13:48:25.355Z,30.40
2017-08-07T13:50:53.615Z,30.50
2017-08-07T13:53:21.069Z,30.40
2017-08-07T13:55:48.546Z,30.10
2017-08-07T13:58:15.969Z,30.00
2017-08-07T14:00:44.216Z,30.10
2017-08-07T14:03:11.659Z,30.10
2017-08-07T14:05:39.111Z,30.00
2017-08-07T14:08:07.334Z,30.80
2017-08-07T14:10:34.763Z,30.80
2017-08-07T14:13:02.259Z,30.70
2017-08-07T14:15:30.511Z,31.00
2017-08-07T14:17:57.957Z,31.00
2017-08-07T14:20:25.418Z,31.30
2017-08-07T14:22:52.854Z,31.90
2017-08-07T14:25:20.314Z,31.20
2017-08-07T14:27:47.749Z,30.20
2017-08-07T14:30:15.206Z,29.90
2017-08-07T14:32:42.639Z,29.90
2017-08-07T14:35:10.091Z,30.30
2017-08-07T14:37:37.581Z,29.90
2017-08-07T14:40:05.819Z,29.60
2017-08-07T14:42:34.052Z,29.90
2017-08-07T14:45:01.516Z,29.90
2017-08-07T14:47:29.106Z,30.70
2017-08-07T14:49:56.527Z,30.60
2017-08-07T14:52:23.968Z,29.90
2017-08-07T14:54:51.432Z,30.00
2017-08-07T14:57:18.879Z,30.40
2017-08-07T14:59:46.353Z,31.00
2017-08-07T15:02:13.792Z,31.80
2017-08-07T15:04:41.255Z,32.50
2017-08-07T15:07:08.751Z,32.60
2017-08-07T15:09:36.957Z,31.70
2017-08-07T15:12:04.424Z,31.70
2017-08-07T15:14:32.624Z,31.20
2017-08-07T15:17:00.076Z,31.20
2017-08-07T15:19:27.620Z,30.60
2017-08-07T15:21:55.125Z,30.40
2017-08-07T15:24:22.540Z,29.60
2017-08-07T15:26:50.010Z,29.50
2017-08-07T15:29:17.452Z,30.10
2017-08-07T15:31:44.893Z,30.10
2017-08-07T15:34:12.371Z,30.30
2017-08-07T15:36:40.232Z,30.20
2017-08-07T15:39:07.687Z,29.70
2017-08-07T15:41:35.151Z,28.70
2017-08-07T15:44:03.362Z,28.40
2017-08-07T15:46:30.831Z,28.40
2017-08-07T15:48:58.253Z,27.90
2017-08-07T15:51:25.715Z,27.60
2017-08-07T15:53:53.180Z,27.50
2017-08-07T15:56:20.619Z,27.40
2017-08-07T15:58:48.852Z,27.60
2017-08-07T16:01:16.309Z,27.60
2017-08-07T16:03:43.735Z,27.40
2017-08-07T16:06:11.202Z,27.10
2017-08-07T16:08:38.729Z,27.00
2017-08-07T16:11:06.262Z,27.10
2017-08-07T16:13:33.808Z,27.10
2017-08-07T16:16:01.247Z,27.00
2017-08-07T16:18:28.722Z,27.10
2017-08-07T16:20:56.924Z,26.90
2017-08-07T16:23:24.356Z,27.00
2017-08-07T16:25:51.897Z,27.00
2017-08-07T16:28:20.075Z,27.00
2017-08-07T16:30:47.530Z,27.00
2017-08-07T16:33:15.720Z,27.10
2017-08-07T16:35:43.936Z,27.00
2017-08-07T16:38:11.368Z,27.00
2017-08-07T16:40:38.840Z,26.90
2017-08-07T16:43:06.303Z,26.50
2017-08-07T16:45:33.741Z,26.50
2017-08-07T16:48:01.180Z,26.50
2017-08-07T16:50:29.373Z,26.30
2017-08-07T16:52:57.596Z,26.20
2017-08-07T16:55:25.027Z,26.20
2017-08-07T16:57:53.257Z,26.10
2017-08-07T17:00:20.709Z,26.00
2017-08-07T17:02:48.941Z,26.10
2017-08-07T17:05:16.376Z,26.10
2017-08-07T17:07:43.867Z,26.20
2017-08-07T17:10:11.295Z,26.10
2017-08-07T17:12:38.903Z,26.00
2017-08-07T17:15:07.969Z,25.90
2017-08-07T17:17:35.396Z,25.90
2017-08-07T17:20:03.629Z,25.80
2017-08-07T17:22:31.181Z,25.70
2017-08-07T17:24:58.658Z,25.80
2017-08-07T17:27:26.085Z,25.70
2017-08-07T17:29:53.555Z,25.60
2017-08-07T17:32:20.999Z,25.60
2017-08-07T17:34:48.437Z,25.60
2017-08-07T17:37:15.922Z,25.50
2017-08-07T17:39:43.409Z,25.60
2017-08-07T17:42:10.909Z,25.60
2017-08-07T17:44:38.350Z,25.50
2017-08-07T17:47:05.808Z,25.50
2017-08-07T17:49:33.251Z,25.50
2017-08-07T17:52:00.708Z,25.50
2017-08-07T17:54:28.161Z,25.50
2017-08-07T17:56:55.609Z,25.30
2017-08-07T17:59:23.847Z,25.20
2017-08-07T18:01:51.291Z,25.20
2017-08-07T18:04:18.725Z,25.20
2017-08-07T18:06:46.187Z,25.20
2017-08-07T18:09:13.637Z,25.00
2017-08-07T18:11:41.093Z,25.00
2017-08-07T18:14:08.562Z,24.90
2017-08-07T18:16:36.005Z,24.90
2017-08-07T18:19:03.464Z,24.80
2017-08-07T18:21:30.902Z,24.70
2017-08-07T18:23:58.356Z,24.60
2017-08-07T18:26:25.840Z,24.60
2017-08-07T18:28:53.293Z,24.60
2017-08-07T18:31:21.555Z,24.50
2017-08-07T18:33:49.030Z,24.50
2017-08-07T18:36:16.496Z,24.50
2017-08-07T18:38:43.931Z,24.50
2017-08-07T18:41:11.385Z,24.40
2017-08-07T18:43:39.589Z,24.40
2017-08-07T18:46:07.047Z,24.30
2017-08-07T18:48:35.880Z,24.30
2017-08-07T18:51:03.396Z,24.30
2017-08-07T18:53:31.020Z,24.20
2017-08-07T18:55:58.508Z,24.20
2017-08-07T18:58:26.019Z,24.10
2017-08-07T19:00:53.467Z,24.10
2017-08-07T19:03:20.916Z,24.00
2017-08-07T19:05:49.141Z,23.70
2017-08-07T19:08:16.602Z,23.70
2017-08-07T19:10:44.065Z,23.70
2017-08-07T19:13:11.508Z,23.60
2017-08-07T19:15:38.975Z,23.60
2017-08-07T19:18:06.456Z,23.50
2017-08-07T19:20:33.910Z,23.40
2017-08-07T19:23:01.363Z,23.40
2017-08-07T19:25:28.812Z,23.30
2017-08-07T19:27:56.272Z,23.30
2017-08-07T19:30:24.485Z,23.30
2017-08-07T19:32:52.562Z,23.30
2017-08-07T19:35:20.779Z,23.20
2017-08-07T19:37:48.211Z,23.20
2017-08-07T19:40:15.688Z,23.20
2017-08-07T19:42:43.145Z,23.10
2017-08-07T19:45:10.601Z,23.10
2017-08-07T19:47:38.049Z,23.00
2017-08-07T19:50:05.524Z,22.90
2017-08-07T19:52:32.948Z,22.90
2017-08-07T19:55:00.404Z,22.90
2017-08-07T19:57:27.868Z,22.70
2017-08-07T19:59:55.328Z,22.60
2017-08-07T20:02:22.774Z,22.60
2017-08-07T20:04:50.233Z,22.60
2017-08-07T20:07:17.679Z,22.60
2017-08-07T20:09:45.128Z,22.70
2017-08-07T20:12:12.571Z,22.60
2017-08-07T20:14:40.804Z,22.60
2017-08-07T20:17:08.237Z,22.60
2017-08-07T20:19:35.696Z,22.50
2017-08-07T20:22:03.214Z,22.50
2017-08-07T20:24:30.697Z,22.40
2017-08-07T20:26:58.152Z,22.40
2017-08-07T20:29:25.620Z,22.30
2017-08-07T20:31:53.856Z,22.20
2017-08-07T20:34:21.307Z,22.10
2017-08-07T20:36:48.865Z,22.20
2017-08-07T20:39:17.055Z,22.20
2017-08-07T20:41:45.273Z,22.10
2017-08-07T20:44:12.711Z,22.10
2017-08-07T20:46:40.932Z,22.10
2017-08-07T20:49:08.386Z,22.10
2017-08-07T20:51:36.701Z,22.00
2017-08-07T20:54:04.902Z,21.80
2017-08-07T20:56:32.359Z,21.80
2017-08-07T20:59:00.596Z,21.80
2017-08-07T21:01:28.040Z,21.80
2017-08-07T21:03:55.514Z,21.80
2017-08-07T21:06:22.946Z,21.70
2017-08-07T21:08:50.373Z,21.70
2017-08-07T21:11:17.827Z,21.60
2017-08-07T21:13:45.268Z,21.60
2017-08-07T21:16:12.735Z,21.60
2017-08-07T21:18:40.182Z,21.50
2017-08-07T21:21:07.630Z,21.60
2017-08-07T21:23:35.084Z,21.60
2017-08-07T21:26:03.305Z,21.40
2017-08-07T21:28:30.764Z,21.40
2017-08-07T21:30:58.223Z,21.40
2017-08-07T21:33:26.452Z,21.40
2017-08-07T21:35:53.892Z,21.40
2017-08-07T21:38:22.114Z,21.30
2017-08-07T21:40:49.584Z,21.20
2017-08-07T21:43:17.043Z,21.20
2017-08-07T21:45:44.529Z,21.30
2017-08-07T21:48:12.004Z,21.20
2017-08-07T21:50:39.449Z,21.20
2017-08-07T21:53:06.906Z,21.20
2017-08-07T21:55:34.355Z,21.10
2017-08-07T21:58:01.844Z,21.10
2017-08-07T22:00:29.311Z,21.00
2017-08-07T22:02:56.755Z,21.10
2017-08-07T22:05:24.212Z,21.00
2017-08-07T22:07:52.423Z,21.00
2017-08-07T22:10:19.902Z,20.90
2017-08-07T22:12:47.331Z,20.90
2017-08-07T22:15:15.427Z,20.80
2017-08-07T22:17:42.887Z,20.80
2017-08-07T22:20:10.326Z,20.70
2017-08-07T22:22:37.894Z,20.60
2017-08-07T22:25:06.081Z,20.50
2017-08-07T22:27:33.530Z,20.40
2017-08-07T22:30:01.762Z,20.40
2017-08-07T22:32:29.244Z,20.40
2017-08-07T22:34:56.699Z,20.30
2017-08-07T22:37:24.143Z,20.30
2017-08-07T22:39:51.595Z,20.30
2017-08-07T22:42:19.045Z,20.20
2017-08-07T22:44:46.516Z,20.10
2017-08-07T22:47:14.015Z,20.10
2017-08-07T22:49:41.479Z,20.00
2017-08-07T22:52:08.925Z,20.00
2017-08-07T22:54:36.499Z,20.00
2017-08-07T22:57:03.939Z,20.00
2017-08-07T22:59:31.405Z,20.00
2017-08-07T23:01:58.846Z,19.90
2017-08-07T23:04:26.281Z,19.90
2017-08-07T23:06:54.496Z,19.90
2017-08-07T23:09:21.945Z,19.80
2017-08-07T23:11:49.386Z,19.80
2017-08-07T23:14:16.815Z,19.70
2017-08-07T23:16:44.275Z,19.60
2017-08-07T23:19:12.500Z,19.50
2017-08-07T23:21:39.973Z,19.50
2017-08-07T23:24:07.438Z,19.40
2017-08-07T23:26:34.876Z,19.40
2017-08-07T23:29:02.330Z,19.40
2017-08-07T23:31:29.781Z,19.40
2017-08-07T23:33:57.255Z,19.40
2017-08-07T23:36:24.712Z,19.40
2017-08-07T23:38:52.295Z,19.30
2017-08-07T23:41:19.760Z,19.30
2017-08-07T23:43:47.228Z,19.30
2017-08-07T23:46:14.689Z,19.20
2017-08-07T23:48:42.890Z,19.20
2017-08-07T23:51:10.350Z,19.20
2017-08-07T23:53:38.559Z,19.30
2017-08-07T23:56:06.023Z,19.20
2017-08-07T23:58:33.460Z,19.30
